Latest Weather Observations for Delamere

IDD60801

Issued at 3:01 pm CST Wednesday 1 April 2015 (issued every 30 minutes, with the page automatically refreshed every 10 minutes)

About weather observations | Map of weather stations | Latest weather observations for NT | Other Formats
Station Details ID: 014949 Name: DELAMERE WEAPONS RANGE Lat: -15.74 Lon: 131.92 Height: 221.0 m
Data from the previous 72 hours. | See also: Recent months at Delamere
Date/Time
CST
Temp
°C
App
Temp
°C
Dew
Point
Rel
Hum
%
Delta-T
°C
Wind Press
QNH
hPa
Press
MSL
hPa
Rain
since 9 am
mm
Dir
 
Spd
km/h
Gust
km/h
Spd
kts
Gust
kts
01/03:00pm 35.1 36.8 20.2 41 10.1 ENE 11 22 6 12 1009.2 1008.0 0.0
01/02:30pm 35.1 35.7 20.2 41 10.1 ENE 17 24 9 13 1009.7 - 0.0
01/02:00pm 34.5 36.0 19.7 41 9.9 ENE 11 20 6 11 1010.1 - 0.0
01/01:30pm 34.3 35.2 18.3 38 10.5 ESE 11 20 6 11 1010.5 - 0.0
01/01:00pm 35.0 35.6 20.2 42 10.0 SE 17 24 9 13 1011.0 - 0.0
01/12:30pm 33.7 35.4 20.1 44 9.1 S 11 20 6 11 1011.6 - 0.0
01/12:00pm 33.5 35.3 20.3 46 8.9 SSW 11 19 6 10 1012.1 1010.8 0.0
01/11:30am 33.0 35.8 21.5 50 7.8 SSW 9 17 5 9 1012.6 - 0.0
01/11:00am 32.2 34.8 20.5 50 7.9 S 7 11 4 6 1013.2 - 0.0
01/10:30am 31.8 34.9 21.0 52 7.3 WNW 6 13 3 7 1013.5 - 0.0
01/10:00am 31.0 33.8 20.9 55 6.8 WSW 7 13 4 7 1013.6 - 0.0
01/09:30am 30.8 34.6 21.0 56 6.6 SE 2 6 1 3 1013.7 - 0.0
01/09:00am 29.7 34.2 21.6 61 5.5 CALM 0 0 0 0 1013.7 1012.5 0.0
01/08:30am 28.5 32.6 20.8 63 5.1 CALM 0 0 0 0 1013.4 - 0.0
01/08:00am 26.8 30.5 22.2 76 3.1 SE 6 7 3 4 1013.2 - 0.0
01/07:30am 25.5 29.5 22.8 85 1.8 SSE 6 7 3 4 1013.0 - 0.0
01/07:00am 24.5 29.6 22.6 89 1.3 CALM 0 0 0 0 1012.5 - 0.0
01/06:30am 24.8 28.9 23.0 90 1.2 ESE 6 6 3 3 1012.3 - 0.0
01/06:00am 24.8 30.0 22.9 89 1.3 CALM 0 0 0 0 1012.0 1010.7 0.0
01/05:30am 25.0 30.3 23.1 89 1.3 CALM 0 0 0 0 1011.8 - 0.0
01/05:00am 25.2 30.5 23.1 88 1.4 CALM 0 0 0 0 1011.5 - 0.0
01/04:30am 25.6 31.0 23.3 87 1.6 CALM 0 0 0 0 1011.4 - 0.0
01/04:00am 25.7 31.1 23.2 86 1.7 CALM 0 0 0 0 1011.4 - 0.0
01/03:30am 25.8 31.2 23.3 86 1.7 CALM 0 0 0 0 1011.4 - 0.0
01/03:00am 26.0 31.4 23.3 85 1.9 CALM 0 0 0 0 1011.6 1010.3 0.0
01/02:30am 26.2 30.2 23.1 83 2.1 NE 7 7 4 4 1011.5 - 0.0
01/02:00am 26.8 32.5 23.7 83 2.1 CALM 0 0 0 0 1011.7 - 0.0
01/01:30am 27.1 32.2 22.7 77 3.0 CALM 0 0 0 0 1012.0 - 0.0
01/01:00am 26.9 31.9 23.2 80 2.5 S 2 6 1 3 1012.4 - 0.0
01/12:30am 26.7 31.4 23.4 82 2.3 S 4 9 2 5 1012.9 - 0.0
01/12:00am 26.5 32.5 24.2 87 1.6 CALM 0 0 0 0 1012.9 1011.7 0.0
 
Date/Time
CST
Temp
°C
App
Temp
°C
Dew
Point
Rel
Hum
%
Delta-T
°C
Wind Press
QNH
hPa
Press
MSL
hPa
Rain
since 9 am
mm
Dir
 
Spd
km/h
Gust
km/h
Spd
kts
Gust
kts
31/11:30pm 26.3 31.8 23.4 84 2.0 CALM 0 0 0 0 1012.9 - 0.0
31/11:00pm 26.5 32.1 23.6 84 2.0 CALM 0 0 0 0 1013.0 - 0.0
31/10:30pm 26.7 32.3 23.6 83 2.1 CALM 0 0 0 0 1013.0 - 0.0
31/10:00pm 27.0 32.4 23.3 80 2.5 CALM 0 0 0 0 1012.9 - 0.0
31/09:30pm 27.5 32.8 23.1 77 3.0 CALM 0 0 0 0 1012.9 - 0.0
31/09:00pm 27.6 32.8 22.8 75 3.3 CALM 0 0 0 0 1012.8 1011.3 0.0
31/08:30pm 28.0 32.7 22.0 70 4.1 CALM 0 0 0 0 1012.4 - 0.0
31/08:00pm 28.4 31.1 21.4 66 4.7 SSW 9 13 5 7 1012.3 - 0.0
31/07:30pm 30.4 34.9 22.3 62 5.5 NNE 2 6 1 3 1012.0 - 0.0
31/07:00pm 31.0 34.1 21.5 57 6.4 NE 7 11 4 6 1011.7 - 0.0
31/06:30pm 32.1 34.7 20.4 50 7.8 ENE 7 11 4 6 1011.4 - 0.0
31/06:00pm 33.1 34.0 19.2 43 9.2 E 13 17 7 9 1011.2 1009.6 0.0
31/05:30pm 33.1 33.6 19.2 43 9.2 ENE 15 20 8 11 1011.0 - 0.0
31/05:00pm 33.8 34.6 19.1 42 9.7 ENE 13 20 7 11 1010.7 - 0.0
31/04:30pm 34.2 34.8 18.7 40 10.2 E 13 20 7 11 1010.5 - 0.0
31/04:00pm 34.3 35.1 19.9 42 9.6 E 15 22 8 12 1010.4 - 0.0
31/03:30pm 34.8 33.8 18.8 39 10.6 E 22 28 12 15 1010.6 - 0.0
31/03:00pm 34.2 34.8 19.4 41 9.9 E 15 24 8 13 1010.8 1009.2 0.0
31/02:30pm 34.2 35.7 21.3 47 8.8 E 15 24 8 13 1011.3 - 0.0
31/02:00pm 33.9 35.7 20.3 45 9.1 E 11 17 6 9 1011.6 - 0.0
31/01:30pm 33.7 35.0 19.4 43 9.5 ESE 11 19 6 10 1012.1 - 0.0
31/01:00pm 33.1 34.0 19.2 43 9.2 ESE 13 19 7 10 1012.7 - 0.0
31/12:30pm 32.7 33.0 19.6 46 8.7 ENE 17 24 9 13 1013.1 - 0.0
31/12:00pm 32.8 33.0 19.3 45 8.9 ENE 17 24 9 13 1013.7 1012.2 0.0
31/11:30am 31.7 32.1 19.0 47 8.3 E 15 24 8 13 1014.2 - 0.0
31/11:00am 30.9 30.8 17.9 45 8.4 E 15 20 8 11 1014.7 - 0.0
31/10:30am 30.7 30.3 18.1 47 8.2 ENE 17 24 9 13 1014.8 - 0.0
31/10:00am 30.5 31.3 19.8 52 7.1 ENE 15 24 8 13 1015.1 - 0.0
31/09:30am 29.4 30.8 20.3 58 6.0 NE 13 19 7 10 1015.2 - 0.0
31/09:00am 28.3 30.6 21.3 65 4.7 NE 11 15 6 8 1015.2 1013.6 0.0
31/08:30am 27.2 29.6 20.8 68 4.3 ENE 9 13 5 7 1015.0 - 0.0
31/08:00am 26.4 29.5 21.4 74 3.3 E 7 11 4 6 1014.7 - 0.0
31/07:30am 24.9 28.2 21.8 83 2.1 ESE 7 9 4 5 1014.4 - 0.0
31/07:00am 24.2 27.5 21.5 85 1.8 E 6 7 3 4 1014.0 - 0.0
31/06:30am 24.0 27.2 21.3 85 1.8 E 6 7 3 4 1013.9 - 0.0
31/06:00am 24.4 27.4 21.3 83 2.1 NE 7 11 4 6 1013.6 1012.1 0.0
31/05:30am 24.5 27.6 21.4 83 2.1 ENE 7 11 4 6 1013.3 - 0.0
31/05:00am 24.9 28.0 21.4 81 2.3 ENE 7 9 4 5 1013.0 - 0.0
31/04:30am 25.1 27.8 21.4 80 2.5 NE 9 11 5 6 1012.6 - 0.0
31/04:00am 25.2 28.4 21.7 81 2.3 NE 7 9 4 5 1012.5 - 0.0
31/03:30am 25.2 28.1 21.7 81 2.3 NE 9 11 5 6 1012.5 - 0.0
31/03:00am 25.5 28.5 22.0 81 2.4 NE 9 11 5 6 1012.6 1011.1 0.0
31/02:30am 25.7 29.4 22.6 83 2.1 NE 7 9 4 5 1012.8 - 0.0
31/02:00am 26.0 29.7 22.5 81 2.4 NE 7 9 4 5 1013.1 - 0.0
31/01:30am 26.0 30.8 22.9 83 2.1 NE 2 7 1 4 1013.3 - 0.0
31/01:00am 26.2 31.5 23.1 83 2.1 CALM 0 0 0 0 1013.5 - 0.0
31/12:30am 26.6 30.4 22.4 78 2.9 NE 6 7 3 4 1013.7 - 0.0
31/12:00am 26.6 32.3 23.7 84 2.0 CALM 0 0 0 0 1013.9 1012.4 0.0
 
Date/Time
CST
Temp
°C
App
Temp
°C
Dew
Point
Rel
Hum
%
Delta-T
°C
Wind Press
QNH
hPa
Press
MSL
hPa
Rain
since 9 am
mm
Dir
 
Spd
km/h
Gust
km/h
Spd
kts
Gust
kts
30/11:30pm 27.0 32.7 23.7 82 2.3 CALM 0 0 0 0 1013.8 - 0.0
30/11:00pm 27.1 32.4 23.1 79 2.7 CALM 0 0 0 0 1014.0 - 0.0
30/10:30pm 27.5 33.3 23.9 81 2.5 CALM 0 0 0 0 1014.1 - 0.0
30/10:00pm 28.0 32.9 23.6 77 3.0 ENE 4 6 2 3 1014.0 - 0.0
30/09:30pm 28.5 32.4 22.5 70 4.1 E 6 7 3 4 1014.0 - 0.0
30/09:00pm 28.8 32.4 22.1 67 4.6 ENE 6 7 3 4 1013.8 1012.3 0.0
30/08:30pm 29.0 32.7 22.2 66 4.6 ENE 6 7 3 4 1013.7 - 0.0
30/08:00pm 29.4 33.0 22.1 65 5.0 NE 6 7 3 4 1013.2 - 0.0
30/07:30pm 29.9 33.8 22.6 65 5.0 NNE 6 7 3 4 1012.9 - 0.0
30/07:00pm 30.7 33.5 20.9 56 6.6 NE 7 9 4 5 1012.7 - 0.0
30/06:30pm 31.8 33.6 20.4 51 7.6 ENE 11 15 6 8 1012.4 - 0.0
30/06:00pm 32.8 33.4 20.3 47 8.4 ENE 17 20 9 11 1012.2 1010.6 0.0
30/05:30pm 33.3 33.3 19.7 44 9.1 ENE 19 26 10 14 1012.0 - 0.0
30/05:00pm 33.9 34.4 19.2 42 9.7 E 15 28 8 15 1011.9 - 0.0
30/04:30pm 34.2 34.6 20.6 45 9.2 ENE 19 26 10 14 1011.7 - 0.0
30/04:00pm 33.6 33.4 19.3 43 9.5 ENE 19 26 10 14 1011.8 - 0.0
30/03:30pm 34.2 34.0 19.4 41 9.8 E 19 30 10 16 1011.9 - 0.0
30/03:00pm 33.9 33.6 19.2 42 9.8 E 19 32 10 17 1012.0 1010.4 0.0
30/02:30pm 33.5 33.2 19.6 44 9.3 ESE 20 28 11 15 1012.2 - 0.0
30/02:00pm 33.5 34.1 20.3 46 8.9 ENE 17 24 9 13 1012.3 - 0.0
30/01:30pm 33.3 33.8 20.1 45 8.8 ENE 17 26 9 14 1012.6 - 0.0
30/01:00pm 32.7 33.0 19.6 46 8.7 E 17 28 9 15 1013.1 - 0.0
30/12:30pm 32.9 33.8 20.1 47 8.6 E 15 22 8 12 1013.5 - 0.0
30/12:00pm 32.8 33.6 21.3 50 7.8 ENE 19 33 10 18 1014.1 1012.6 0.0
30/11:30am 31.6 31.5 19.6 49 7.9 ENE 19 26 10 14 1014.8 - 0.0
30/11:00am 31.3 31.3 19.0 48 8.1 E 17 28 9 15 1015.2 - 0.0
30/10:30am 30.8 29.8 18.8 48 7.8 ENE 22 30 12 16 1015.4 - 0.0
30/10:00am 30.3 30.8 19.3 51 7.2 E 15 24 8 13 1015.4 - 0.0
30/09:30am 29.2 31.3 20.9 61 5.6 ENE 11 19 6 10 1015.5 - 0.0
30/09:00am 27.7 29.0 21.7 70 4.0 ENE 17 20 9 11 1015.0 1013.4 0.0
30/08:30am 26.6 28.9 22.0 76 3.1 ENE 13 19 7 10 1014.9 - 0.0
30/08:00am 25.6 28.3 21.3 77 2.9 ENE 9 15 5 8 1014.4 - 0.0
30/07:30am 24.9 27.9 21.2 80 2.5 E 7 13 4 7 1014.0 - 0.0
30/07:00am 24.0 26.4 20.9 83 2.0 ENE 9 13 5 7 1013.6 - 0.0
30/06:30am 24.0 26.8 21.5 86 1.7 NE 9 13 5 7 1013.2 - 0.0
30/06:00am 24.0 27.0 21.9 88 1.4 NE 9 9 5 5 1012.9 1011.4 0.0
30/05:30am 24.2 27.3 22.1 88 1.4 ENE 9 11 5 6 1012.6 - 0.0
30/05:00am 24.3 28.0 22.6 90 1.2 ENE 7 9 4 5 1012.3 - 0.0
30/04:30am 24.6 28.5 22.5 88 1.4 ENE 6 7 3 4 1012.0 - 0.0
30/04:00am 24.7 28.2 22.9 90 1.2 NE 9 11 5 6 1011.9 - 0.0
30/03:30am 24.8 30.1 23.0 90 1.2 CALM 0 0 0 0 1012.0 - 0.0
30/03:00am 25.0 30.2 22.9 88 1.4 CALM 0 0 0 0 1012.2 1010.6 0.0
30/02:30am 25.2 30.7 23.4 90 1.2 CALM 0 0 0 0 1012.2 - 0.0
30/02:00am 25.5 31.2 23.7 90 1.2 CALM 0 0 0 0 1012.6 - 0.0
30/01:30am 25.4 31.0 23.5 89 1.3 CALM 0 0 0 0 1012.8 - 0.0
30/01:00am 25.5 30.8 23.0 86 1.7 CALM 0 0 0 0 1013.2 - 0.0
30/12:30am 26.2 31.9 23.7 86 1.7 CALM 0 0 0 0 1013.7 - 0.0
30/12:00am 26.5 32.1 23.6 84 2.0 CALM 0 0 0 0 1013.9 1012.4 0.0
 
Date/Time
CST
Temp
°C
App
Temp
°C
Dew
Point
Rel
Hum
%
Delta-T
°C
Wind Press
QNH
hPa
Press
MSL
hPa
Rain
since 9 am
mm
Dir
 
Spd
km/h
Gust
km/h
Spd
kts
Gust
kts
29/11:30pm 26.8 32.0 22.8 79 2.7 CALM 0 0 0 0 1014.2 - 0.0
29/11:00pm 27.4 30.7 21.9 72 3.7 NNE 7 9 4 5 1014.2 - 0.0
29/10:30pm 27.9 31.0 22.1 70 3.9 NNE 9 11 5 6 1014.4 - 0.0
29/10:00pm 28.3 32.4 22.3 70 4.1 NE 4 9 2 5 1014.1 - 0.0
29/09:30pm 28.7 33.5 22.2 68 4.4 CALM 0 0 0 0 1014.1 - 0.0
29/09:00pm 28.6 33.8 22.8 71 4.0 CALM 0 0 0 0 1013.9 1012.4 0.0
29/08:30pm 28.8 34.1 23.0 71 4.0 CALM 0 0 0 0 1013.7 - 0.0
29/08:00pm 29.2 34.4 22.9 69 4.3 CALM 0 0 0 0 1013.4 - 0.0
29/07:30pm 29.8 35.4 23.5 69 4.4 CALM 0 0 0 0 1013.1 - 0.0
29/07:00pm 30.8 34.6 21.0 56 6.6 ENE 2 6 1 3 1012.8 - 0.0
29/06:30pm 32.0 34.2 19.6 47 8.2 ENE 7 11 4 6 1012.5 - 0.0
29/06:00pm 32.9 34.2 19.4 45 9.0 ENE 11 15 6 8 1012.1 1010.5 0.0
29/05:30pm 33.5 33.6 18.4 40 9.9 ESE 15 20 8 11 1011.9 - 0.0
29/05:00pm 33.8 34.1 17.9 38 10.4 E 13 20 7 11 1011.7 - 0.0
29/04:30pm 33.9 34.1 17.6 38 10.6 E 13 20 7 11 1011.6 - 0.0
29/04:00pm 33.6 33.8 18.5 40 9.9 E 15 24 8 13 1011.5 - 0.0
29/03:30pm 33.8 33.6 17.5 38 10.6 E 15 24 8 13 1011.6 - 0.0

Other Formats:

Comma delimited format used in spreadsheet applications
http://www.bom.gov.au/fwo/IDD60801/IDD60801.94225.axf

JavaScript Object Notation format (JSON) in row-major order
http://www.bom.gov.au/fwo/IDD60801/IDD60801.94225.json